createdAt,value
2019-03-17T00:00:07.928Z,151917.09
2019-03-17T00:02:36.444Z,151911.88
2019-03-17T00:05:06.142Z,151905.30
2019-03-17T00:07:34.646Z,151917.09
2019-03-17T00:10:03.125Z,151896.12
2019-03-17T00:12:31.777Z,151909.27
2019-03-17T00:15:05.665Z,151896.12
2019-03-17T00:17:30.568Z,151911.88
2019-03-17T00:20:01.768Z,151906.59
2019-03-17T00:22:30.274Z,151907.91
2019-03-17T00:25:09.332Z,151909.27
2019-03-17T00:27:31.925Z,151907.91
2019-03-17T00:30:00.523Z,151909.27
2019-03-17T00:32:28.980Z,151906.59
2019-03-17T00:34:57.446Z,151913.17
2019-03-17T00:37:25.941Z,151904.00
2019-03-17T00:39:54.456Z,151905.30
2019-03-17T00:42:22.935Z,151907.91
2019-03-17T00:44:51.430Z,151906.59
2019-03-17T00:47:19.903Z,151904.00
2019-03-17T00:49:48.504Z,151904.00
2019-03-17T00:52:17.018Z,151902.69
2019-03-17T00:54:45.501Z,151890.91
2019-03-17T00:57:13.997Z,151898.72
2019-03-17T00:59:42.564Z,151896.12
2019-03-17T01:02:11.057Z,151896.12
2019-03-17T01:04:39.622Z,151898.72
2019-03-17T01:07:08.107Z,151893.50
2019-03-17T01:09:36.590Z,151886.94
2019-03-17T01:12:05.252Z,151888.23
2019-03-17T01:14:33.729Z,151890.91
2019-03-17T01:17:02.229Z,151896.12
2019-03-17T01:19:30.688Z,151890.91
2019-03-17T01:21:59.219Z,151892.20
2019-03-17T01:24:27.685Z,151888.23
2019-03-17T01:26:56.237Z,151896.12
2019-03-17T01:29:24.749Z,151886.94
2019-03-17T01:31:53.214Z,151888.23
2019-03-17T01:34:21.712Z,151885.62
2019-03-17T01:36:50.176Z,151889.59
2019-03-17T01:39:20.311Z,151890.91
2019-03-17T01:41:48.797Z,151885.62
2019-03-17T01:44:17.306Z,151890.91
2019-03-17T01:46:45.767Z,151892.20
2019-03-17T01:49:14.261Z,151888.23
2019-03-17T01:51:42.724Z,151883.02
2019-03-17T01:54:11.252Z,151888.23
2019-03-17T01:56:39.706Z,151888.23
2019-03-17T01:59:08.186Z,151881.72
2019-03-17T02:01:37.897Z,151879.11
2019-03-17T02:04:06.380Z,151888.23
2019-03-17T02:06:34.918Z,151889.59
2019-03-17T02:09:04.052Z,151880.41
2019-03-17T02:11:32.501Z,151877.75
2019-03-17T02:14:01.023Z,151877.75
2019-03-17T02:16:29.475Z,151879.11
2019-03-17T02:18:57.946Z,151872.53
2019-03-17T02:21:26.422Z,151873.84
2019-03-17T02:23:54.910Z,151875.14
2019-03-17T02:26:23.401Z,151873.84
2019-03-17T02:28:51.906Z,151875.14
2019-03-17T02:31:20.381Z,151872.53
2019-03-17T02:33:49.041Z,151869.92
2019-03-17T02:36:17.531Z,151872.53
2019-03-17T02:38:46.107Z,151872.53
2019-03-17T02:41:14.628Z,151877.75
2019-03-17T02:43:43.174Z,151875.14
2019-03-17T02:46:11.648Z,151877.75
2019-03-17T02:48:40.140Z,151880.41
2019-03-17T02:51:08.607Z,151875.14
2019-03-17T02:53:37.176Z,151872.53
2019-03-17T02:56:05.675Z,151877.75
2019-03-17T02:58:34.166Z,151875.14
2019-03-17T03:01:02.652Z,151873.84
2019-03-17T03:03:31.139Z,151879.11
2019-03-17T03:05:59.600Z,151883.02
2019-03-17T03:08:28.114Z,151881.72
2019-03-17T03:10:56.562Z,151877.75
2019-03-17T03:13:25.062Z,151875.14
2019-03-17T03:15:53.721Z,151872.53
2019-03-17T03:18:22.223Z,151867.27
2019-03-17T03:20:50.707Z,151869.92
2019-03-17T03:23:19.196Z,151875.14
2019-03-17T03:25:47.669Z,151869.92
2019-03-17T03:28:16.149Z,151871.22
2019-03-17T03:30:44.640Z,151869.92
2019-03-17T03:33:13.135Z,151875.14
2019-03-17T03:35:41.566Z,151864.66
2019-03-17T03:38:10.046Z,151872.53
2019-03-17T03:40:38.560Z,151865.97
2019-03-17T03:43:07.075Z,151867.27
2019-03-17T03:45:35.546Z,151871.22
2019-03-17T03:48:04.030Z,151872.53
2019-03-17T03:50:32.484Z,151868.63
2019-03-17T03:53:00.966Z,151867.27
2019-03-17T03:55:29.420Z,151862.05
2019-03-17T03:57:57.884Z,151860.75
2019-03-17T04:00:26.383Z,151859.44
2019-03-17T04:02:54.863Z,151851.56
2019-03-17T04:05:23.395Z,151847.66
2019-03-17T04:07:51.860Z,151842.38
2019-03-17T04:10:20.341Z,151839.78
2019-03-17T04:12:48.817Z,151834.50
2019-03-17T04:15:17.306Z,151827.98
2019-03-17T04:17:45.960Z,151825.33
2019-03-17T04:20:14.507Z,151822.72
2019-03-17T04:22:43.052Z,151822.72
2019-03-17T04:25:13.572Z,151817.50
2019-03-17T04:27:42.110Z,151804.36
2019-03-17T04:30:11.342Z,151807.02
2019-03-17T04:32:39.839Z,151807.02
2019-03-17T04:35:08.507Z,151801.75
2019-03-17T04:37:36.960Z,151796.53
2019-03-17T04:40:07.574Z,151793.88
2019-03-17T04:42:36.037Z,151793.88
2019-03-17T04:45:05.982Z,151788.66
2019-03-17T04:47:34.452Z,151788.66
2019-03-17T04:50:02.938Z,151786.05
2019-03-17T04:52:31.417Z,151783.39
2019-03-17T04:54:59.908Z,151783.39
2019-03-17T04:57:28.382Z,151787.34
2019-03-17T04:59:56.870Z,151793.88
2019-03-17T05:02:25.339Z,151784.69
2019-03-17T05:04:53.837Z,151778.17
2019-03-17T05:07:22.302Z,151767.69
2019-03-17T05:09:50.885Z,151775.56
2019-03-17T05:12:19.340Z,151775.56
2019-03-17T05:14:47.830Z,151772.91
2019-03-17T05:17:16.300Z,151778.17
2019-03-17T05:19:44.800Z,151778.17
2019-03-17T05:22:13.271Z,151783.39
2019-03-17T05:24:41.758Z,151783.39
2019-03-17T05:27:10.229Z,151784.69
2019-03-17T05:29:38.713Z,151793.88
2019-03-17T05:32:07.185Z,151791.27
2019-03-17T05:34:35.708Z,151801.75
2019-03-17T05:37:06.663Z,151803.06
2019-03-17T05:39:34.400Z,151803.06
2019-03-17T05:42:02.918Z,151810.92
2019-03-17T05:44:31.388Z,151809.63
2019-03-17T05:46:59.851Z,151814.84
2019-03-17T05:49:28.327Z,151816.14
2019-03-17T05:51:56.789Z,151820.11
2019-03-17T05:54:25.272Z,151827.98
2019-03-17T05:56:53.721Z,151829.28
2019-03-17T05:59:22.209Z,151835.81
2019-03-17T06:01:50.654Z,151842.38
2019-03-17T06:04:19.155Z,151846.30
2019-03-17T06:06:47.597Z,151851.56
2019-03-17T06:09:16.080Z,151859.44
2019-03-17T06:11:44.539Z,151867.27
2019-03-17T06:14:13.018Z,151869.92
2019-03-17T06:16:41.473Z,151877.75
2019-03-17T06:19:09.955Z,151886.94
2019-03-17T06:21:38.435Z,151897.42
2019-03-17T06:24:06.916Z,151905.30
2019-03-17T06:26:35.358Z,151909.27
2019-03-17T06:29:03.932Z,151921.06
2019-03-17T06:31:32.429Z,151923.66
2019-03-17T06:34:00.908Z,151932.84
2019-03-17T06:36:29.395Z,151940.72
2019-03-17T06:38:57.869Z,151947.25
2019-03-17T06:41:26.357Z,151945.94
2019-03-17T06:43:54.804Z,151959.03
2019-03-17T06:46:23.286Z,151956.44
2019-03-17T06:48:51.817Z,151963.00
2019-03-17T06:51:20.299Z,151969.53
2019-03-17T06:53:56.455Z,151976.11
2019-03-17T06:56:18.991Z,151976.11
2019-03-17T06:58:47.472Z,151985.28
2019-03-17T07:01:15.949Z,152007.58
2019-03-17T07:03:44.414Z,152024.64
2019-03-17T07:06:12.926Z,152025.94
2019-03-17T07:08:41.405Z,152035.12
2019-03-17T07:11:11.155Z,152050.84
2019-03-17T07:13:39.856Z,152061.34
2019-03-17T07:16:08.338Z,152094.13
2019-03-17T07:18:36.802Z,152108.58
2019-03-17T07:21:05.275Z,152100.70
2019-03-17T07:23:34.407Z,152119.08
2019-03-17T07:26:03.144Z,152113.81
2019-03-17T07:28:31.610Z,152123.00
2019-03-17T07:31:00.107Z,152138.75
2019-03-17T07:33:28.571Z,152132.19
2019-03-17T07:35:57.068Z,152155.78
2019-03-17T07:38:25.535Z,152188.67
2019-03-17T07:40:54.036Z,152231.97
2019-03-17T07:43:22.509Z,152266.08
2019-03-17T07:45:51.013Z,152315.97
2019-03-17T07:48:19.474Z,152315.97
2019-03-17T07:50:47.962Z,152360.59
2019-03-17T07:53:16.434Z,152440.70
2019-03-17T07:55:44.915Z,152557.59
2019-03-17T07:58:13.397Z,152639.11
2019-03-17T08:00:41.902Z,152745.56
2019-03-17T08:03:10.457Z,152786.31
2019-03-17T08:05:38.966Z,152866.53
2019-03-17T08:08:09.636Z,152944.16
2019-03-17T08:10:37.671Z,153029.72
2019-03-17T08:13:06.224Z,153083.64
2019-03-17T08:15:34.814Z,153141.58
2019-03-17T08:18:03.277Z,153192.91
2019-03-17T08:20:31.790Z,153236.34
2019-03-17T08:23:00.262Z,153296.97
2019-03-17T08:25:28.737Z,153387.81
2019-03-17T08:27:57.254Z,153407.58
2019-03-17T08:30:25.724Z,153476.09
2019-03-17T08:32:54.222Z,153497.17
2019-03-17T08:35:22.669Z,153473.47
2019-03-17T08:37:51.157Z,153455.02
2019-03-17T08:40:19.819Z,153502.42
2019-03-17T08:42:48.323Z,153489.27
2019-03-17T08:45:16.796Z,153543.28
2019-03-17T08:47:57.226Z,153437.87
2019-03-17T08:50:15.757Z,153397.03
2019-03-17T08:52:44.252Z,153339.11
2019-03-17T08:55:12.959Z,153385.19
2019-03-17T08:57:41.521Z,153476.09
2019-03-17T09:00:13.048Z,153515.64
2019-03-17T09:02:41.523Z,153480.03
2019-03-17T09:05:10.131Z,153530.11
2019-03-17T09:07:38.617Z,153663.30
2019-03-17T09:10:10.404Z,153694.94
2019-03-17T09:12:38.896Z,153755.59
2019-03-17T09:15:07.774Z,153837.38
2019-03-17T09:17:36.440Z,153858.52
2019-03-17T09:20:07.785Z,153928.41
2019-03-17T09:22:36.337Z,153954.81
2019-03-17T09:25:05.740Z,154051.14
2019-03-17T09:27:34.242Z,154022.09
2019-03-17T09:30:02.725Z,154000.97
2019-03-17T09:32:31.498Z,154056.44
2019-03-17T09:34:59.971Z,154051.14
2019-03-17T09:37:28.455Z,154078.88
2019-03-17T09:39:56.938Z,154283.59
2019-03-17T09:42:25.420Z,154197.72
2019-03-17T09:44:53.926Z,154238.66
2019-03-17T09:47:22.793Z,154043.20
2019-03-17T09:49:51.224Z,154121.16
2019-03-17T09:52:19.709Z,154290.16
2019-03-17T09:54:48.198Z,154381.38
2019-03-17T09:57:16.724Z,154250.53
2019-03-17T09:59:45.201Z,154082.81
2019-03-17T10:02:13.682Z,153937.64
2019-03-17T10:04:42.217Z,153990.42
2019-03-17T10:07:10.723Z,153915.22
2019-03-17T10:09:39.185Z,153871.70
2019-03-17T10:12:07.657Z,153892.80
2019-03-17T10:14:36.145Z,153887.50
2019-03-17T10:17:04.626Z,153787.23
2019-03-17T10:19:33.134Z,153742.38
2019-03-17T10:22:01.569Z,153668.53
2019-03-17T10:24:30.048Z,153691.00
2019-03-17T10:26:58.554Z,153523.50
2019-03-17T10:29:27.048Z,153460.27
2019-03-17T10:31:55.527Z,153455.02
2019-03-17T10:34:24.031Z,153426.03
2019-03-17T10:36:52.489Z,153407.58
2019-03-17T10:39:21.054Z,153375.97
2019-03-17T10:41:49.520Z,153336.44
2019-03-17T10:44:18.003Z,153349.66
2019-03-17T10:46:46.553Z,153368.05
2019-03-17T10:49:15.068Z,153407.58
2019-03-17T10:51:43.546Z,153420.78
2019-03-17T10:54:14.844Z,153461.58
2019-03-17T10:56:42.297Z,153431.31
2019-03-17T10:59:10.801Z,153426.03
2019-03-17T11:01:39.265Z,153453.72
2019-03-17T11:04:07.770Z,153452.41
2019-03-17T11:06:36.277Z,153412.87
2019-03-17T11:09:06.088Z,153423.41
2019-03-17T11:11:34.568Z,153389.13
2019-03-17T11:14:03.076Z,153335.13
2019-03-17T11:16:31.557Z,153321.97
2019-03-17T11:19:00.056Z,153246.88
2019-03-17T11:21:28.524Z,153256.09
2019-03-17T11:23:57.026Z,153279.84
2019-03-17T11:26:25.504Z,153267.94
2019-03-17T11:28:53.992Z,153257.41
2019-03-17T11:31:22.464Z,153231.06
2019-03-17T11:33:51.124Z,153220.53
2019-03-17T11:36:19.625Z,153204.75
2019-03-17T11:38:48.114Z,153200.78
2019-03-17T11:41:16.593Z,153127.06
2019-03-17T11:43:45.134Z,153132.36
2019-03-17T11:46:13.580Z,153138.91
2019-03-17T11:48:42.079Z,153096.80
2019-03-17T11:51:10.538Z,153057.31
2019-03-17T11:53:39.028Z,153065.22
2019-03-17T11:56:07.493Z,153020.50
2019-03-17T11:58:36.056Z,153052.06
2019-03-17T12:01:04.553Z,153009.97
2019-03-17T12:03:33.045Z,152988.92
2019-03-17T12:06:01.517Z,153021.81
2019-03-17T12:08:30.006Z,152992.84
2019-03-17T12:10:58.507Z,152991.53
2019-03-17T12:13:27.002Z,152991.53
2019-03-17T12:15:55.466Z,152984.94
2019-03-17T12:18:23.968Z,152981.02
2019-03-17T12:20:52.431Z,152996.83
2019-03-17T12:23:20.972Z,152978.41
2019-03-17T12:25:49.513Z,152996.83
2019-03-17T12:28:18.057Z,153017.88
2019-03-17T12:30:46.529Z,153012.59
2019-03-17T12:33:15.019Z,153017.88
2019-03-17T12:35:43.513Z,152996.83
2019-03-17T12:38:11.993Z,152996.83
2019-03-17T12:40:40.470Z,152981.02
2019-03-17T12:43:08.943Z,152988.92
2019-03-17T12:45:37.437Z,152991.53
2019-03-17T12:48:05.910Z,152965.25
2019-03-17T12:50:34.404Z,152961.28
2019-03-17T12:53:02.878Z,152934.94
2019-03-17T12:55:31.365Z,152941.50
2019-03-17T12:58:00.698Z,152938.87
2019-03-17T13:00:29.184Z,152890.19
2019-03-17T13:02:57.662Z,152675.94
2019-03-17T13:05:26.307Z,152565.48
2019-03-17T13:07:54.791Z,152523.45
2019-03-17T13:10:23.446Z,152537.88
2019-03-17T13:12:51.949Z,152373.72
2019-03-17T13:15:20.448Z,152438.09
2019-03-17T13:17:48.924Z,152381.59
2019-03-17T13:20:18.673Z,152355.38
2019-03-17T13:22:47.126Z,152342.20
2019-03-17T13:25:15.867Z,152279.19
2019-03-17T13:27:44.393Z,152242.47
2019-03-17T13:30:18.022Z,152158.44
2019-03-17T13:32:46.555Z,152121.69
2019-03-17T13:35:15.141Z,152105.97
2019-03-17T13:37:43.621Z,152109.89
2019-03-17T13:40:14.250Z,152146.59
2019-03-17T13:42:42.738Z,152063.94
2019-03-17T13:45:13.067Z,152052.16
2019-03-17T13:47:41.720Z,152042.97
2019-03-17T13:50:23.516Z,152041.66
2019-03-17T13:52:51.999Z,152032.47
2019-03-17T13:55:20.505Z,152023.34
2019-03-17T13:58:06.476Z,152016.77
2019-03-17T14:00:34.976Z,152002.34
2019-03-17T14:03:06.294Z,151966.92
2019-03-17T14:05:34.834Z,151981.33
2019-03-17T14:08:03.296Z,151909.27
2019-03-17T14:10:40.800Z,151938.06
2019-03-17T14:13:02.004Z,151935.45
2019-03-17T14:15:30.498Z,151915.78
2019-03-17T14:17:58.955Z,151948.56
2019-03-17T14:20:27.445Z,151930.23
2019-03-17T14:22:55.892Z,151905.30
2019-03-17T14:25:35.209Z,151911.88
2019-03-17T14:28:03.653Z,151917.09
2019-03-17T14:30:32.136Z,151905.30
2019-03-17T14:33:00.657Z,151877.75
2019-03-17T14:35:29.132Z,151900.08
2019-03-17T14:37:57.577Z,151922.36
2019-03-17T14:40:26.056Z,151913.17
2019-03-17T14:42:55.603Z,151922.36
2019-03-17T14:45:24.448Z,151880.41
2019-03-17T14:47:52.908Z,151909.27
2019-03-17T14:50:22.638Z,151911.88
2019-03-17T14:52:51.089Z,151897.42
2019-03-17T14:55:19.570Z,151894.81
2019-03-17T14:57:48.033Z,151906.59
2019-03-17T15:00:23.751Z,151883.02
2019-03-17T15:02:52.220Z,151918.39
2019-03-17T15:05:20.774Z,151884.33
2019-03-17T15:07:49.306Z,151902.69
2019-03-17T15:10:20.860Z,151909.27
2019-03-17T15:12:49.330Z,151910.56
2019-03-17T15:15:20.862Z,151919.75
2019-03-17T15:17:49.599Z,151910.56
2019-03-17T15:20:25.678Z,151921.06
2019-03-17T15:22:54.155Z,151919.75
2019-03-17T15:25:22.648Z,151917.09
2019-03-17T15:27:51.109Z,151917.09
2019-03-17T15:30:25.089Z,151935.45
2019-03-17T15:32:53.545Z,151943.34
2019-03-17T15:35:22.091Z,151951.22
2019-03-17T15:37:50.521Z,151932.84
2019-03-17T15:40:20.243Z,151927.58
2019-03-17T15:42:48.722Z,151948.56
2019-03-17T15:45:22.071Z,151957.73
2019-03-17T15:47:50.528Z,151952.52
2019-03-17T15:50:21.160Z,151940.72
2019-03-17T15:52:49.644Z,151949.86
2019-03-17T15:55:18.388Z,151948.56
2019-03-17T15:57:47.086Z,151943.34
2019-03-17T16:00:24.990Z,151948.56
2019-03-17T16:02:48.248Z,151955.13
2019-03-17T16:05:16.797Z,151966.92
2019-03-17T16:07:45.246Z,151939.38
2019-03-17T16:10:21.711Z,151927.58
2019-03-17T16:12:50.176Z,151936.75
2019-03-17T16:15:18.659Z,151935.45
2019-03-17T16:17:47.135Z,151935.45
2019-03-17T16:20:25.727Z,151907.91
2019-03-17T16:22:54.257Z,151915.78
2019-03-17T16:25:34.794Z,151923.66
2019-03-17T16:28:03.253Z,151959.03
2019-03-17T16:30:32.911Z,151901.37
2019-03-17T16:33:01.367Z,151900.08
2019-03-17T16:35:29.926Z,151898.72
2019-03-17T16:37:58.513Z,151872.53
2019-03-17T16:40:32.040Z,151872.53
2019-03-17T16:43:00.596Z,151883.02
2019-03-17T16:45:29.088Z,151905.30
2019-03-17T16:47:57.710Z,151888.23
2019-03-17T16:50:26.164Z,151896.12
2019-03-17T16:52:54.649Z,151869.92
2019-03-17T16:55:23.111Z,151875.14
2019-03-17T16:57:51.650Z,151901.37
2019-03-17T17:00:20.946Z,151868.63
2019-03-17T17:02:50.014Z,151877.75
2019-03-17T17:05:19.647Z,151869.92
2019-03-17T17:07:48.203Z,151875.14
2019-03-17T17:10:27.611Z,151860.75
2019-03-17T17:12:56.422Z,151873.84
2019-03-17T17:15:27.965Z,151869.92
2019-03-17T17:17:56.627Z,151885.62
2019-03-17T17:20:32.362Z,151863.34
2019-03-17T17:23:00.835Z,151880.41
2019-03-17T17:25:29.285Z,151873.84
2019-03-17T17:27:57.766Z,151888.23
2019-03-17T17:30:26.245Z,151884.33
2019-03-17T17:32:54.723Z,151884.33
2019-03-17T17:35:23.266Z,151872.53
2019-03-17T17:37:51.801Z,151831.89
2019-03-17T17:40:24.572Z,151817.50
2019-03-17T17:42:53.081Z,151827.98
2019-03-17T17:45:27.759Z,151805.66
2019-03-17T17:47:56.263Z,151783.39
2019-03-17T17:50:33.947Z,151782.09
2019-03-17T17:53:02.439Z,151772.91
2019-03-17T17:55:30.992Z,151707.41
2019-03-17T17:57:59.505Z,151711.33
2019-03-17T18:00:35.825Z,151700.80
2019-03-17T18:03:04.675Z,151679.83
2019-03-17T18:05:33.141Z,151689.02
2019-03-17T18:08:01.621Z,151675.92
2019-03-17T18:10:30.099Z,151673.31
2019-03-17T18:12:58.565Z,151670.66
2019-03-17T18:15:31.068Z,151594.72
2019-03-17T18:17:59.553Z,151602.58
2019-03-17T18:20:28.200Z,151616.97
2019-03-17T18:22:56.749Z,151605.19
2019-03-17T18:25:25.211Z,151580.33
2019-03-17T18:27:53.682Z,151611.75
2019-03-17T18:30:25.374Z,151585.53
2019-03-17T18:32:53.924Z,151575.06
2019-03-17T18:35:22.385Z,151567.19
2019-03-17T18:37:51.452Z,151563.28
2019-03-17T18:40:21.474Z,151558.02
2019-03-17T18:42:50.027Z,151554.11
2019-03-17T18:45:30.202Z,151533.16
2019-03-17T18:47:58.767Z,151510.91
2019-03-17T18:50:27.236Z,151499.14
2019-03-17T18:52:55.727Z,151513.52
2019-03-17T18:55:24.191Z,151497.83
2019-03-17T18:57:52.846Z,151472.94
2019-03-17T19:00:24.374Z,151474.23
2019-03-17T19:02:52.868Z,151482.09
2019-03-17T19:05:21.401Z,151451.98
2019-03-17T19:07:49.999Z,151436.31
2019-03-17T19:10:20.574Z,151442.81
2019-03-17T19:12:49.395Z,151431.05
2019-03-17T19:15:21.746Z,151454.59
2019-03-17T19:17:50.227Z,151431.05
2019-03-17T19:20:19.959Z,151437.61
2019-03-17T19:22:48.500Z,151438.91
2019-03-17T19:25:21.945Z,151433.66
2019-03-17T19:27:50.431Z,151421.88
2019-03-17T19:30:22.377Z,151421.88
2019-03-17T19:32:50.876Z,151408.81
2019-03-17T19:35:19.622Z,151411.41
2019-03-17T19:37:48.110Z,151404.89
2019-03-17T19:40:20.642Z,151393.08
2019-03-17T19:42:58.722Z,151397.03
2019-03-17T19:45:19.404Z,151393.08
2019-03-17T19:47:47.916Z,151380.00
2019-03-17T19:50:17.552Z,151382.61
2019-03-17T19:52:46.036Z,151368.23
2019-03-17T19:55:14.597Z,151360.38
2019-03-17T19:57:43.052Z,151372.14
2019-03-17T20:00:16.311Z,151349.91
2019-03-17T20:02:47.373Z,151351.20
2019-03-17T20:05:15.493Z,151359.06
2019-03-17T20:07:43.951Z,151336.83
2019-03-17T20:10:29.195Z,151331.63
2019-03-17T20:13:10.420Z,151322.45
2019-03-17T20:15:28.053Z,151313.28
2019-03-17T20:17:56.536Z,151300.17
2019-03-17T20:20:25.022Z,151304.13
2019-03-17T20:22:53.472Z,151322.45
2019-03-17T20:25:21.978Z,151308.03
2019-03-17T20:27:50.436Z,151302.83
2019-03-17T20:30:19.694Z,151289.70
2019-03-17T20:32:48.185Z,151293.66
2019-03-17T20:35:16.808Z,151276.64
2019-03-17T20:37:45.286Z,151291.06
2019-03-17T20:40:18.686Z,151272.73
2019-03-17T20:42:47.137Z,151270.12
2019-03-17T20:45:16.265Z,151262.27
2019-03-17T20:50:19.339Z,151240.03
2019-03-17T20:52:47.829Z,151226.92
2019-03-17T20:55:16.319Z,151236.08
2019-03-17T20:57:44.786Z,151237.37
2019-03-17T21:00:17.165Z,151228.22
2019-03-17T21:02:45.641Z,151230.88
2019-03-17T21:05:14.521Z,151232.17
2019-03-17T21:07:43.419Z,151217.77
2019-03-17T21:10:13.920Z,151212.56
2019-03-17T21:12:42.548Z,151203.39
2019-03-17T21:15:16.967Z,151198.19
2019-03-17T21:17:45.442Z,151202.09
2019-03-17T21:20:15.699Z,151196.83
2019-03-17T21:22:44.260Z,151164.14
2019-03-17T21:25:12.914Z,151158.94
2019-03-17T21:27:41.475Z,151162.84
2019-03-17T21:30:15.378Z,151148.48
2019-03-17T21:32:43.824Z,151130.16
2019-03-17T21:35:12.510Z,151139.31
2019-03-17T21:37:40.979Z,151136.72
2019-03-17T21:40:12.007Z,151126.27
2019-03-17T21:42:40.818Z,151126.27
2019-03-17T21:45:10.796Z,151127.56
2019-03-17T21:47:39.324Z,151114.45
2019-03-17T21:50:15.593Z,151126.27
2019-03-17T21:52:44.154Z,151121.00
2019-03-17T21:55:13.883Z,151114.45
2019-03-17T21:57:42.615Z,151110.55
2019-03-17T22:00:14.159Z,151119.70
2019-03-17T22:02:42.637Z,151115.80
2019-03-17T22:05:12.729Z,151101.39
2019-03-17T22:07:49.271Z,151079.17
2019-03-17T22:10:13.817Z,151087.03
2019-03-17T22:12:42.331Z,151071.27
2019-03-17T22:15:12.758Z,151068.66
2019-03-17T22:17:41.240Z,151084.42
2019-03-17T22:20:12.198Z,151068.66
2019-03-17T22:22:40.758Z,151073.92
2019-03-17T22:25:10.566Z,151069.97
2019-03-17T22:27:39.079Z,151064.75
2019-03-17T22:30:16.155Z,151069.97
2019-03-17T22:32:44.645Z,151081.78
2019-03-17T22:35:13.166Z,151063.41
2019-03-17T22:37:41.627Z,151052.95
2019-03-17T22:40:12.767Z,151060.81
2019-03-17T22:42:41.329Z,151058.20
2019-03-17T22:45:12.459Z,151063.41
2019-03-17T22:47:40.955Z,151052.95
2019-03-17T22:50:14.458Z,151052.95
2019-03-17T22:52:43.041Z,151047.75
2019-03-17T22:55:11.845Z,151050.34
2019-03-17T22:57:40.418Z,151058.20
2019-03-17T23:00:36.148Z,151032.03
2019-03-17T23:03:05.314Z,151049.05
2019-03-17T23:05:33.789Z,151029.44
2019-03-17T23:08:02.289Z,151038.59
2019-03-17T23:10:30.752Z,151041.19
2019-03-17T23:12:59.237Z,151026.84
2019-03-17T23:15:27.688Z,151034.69
2019-03-17T23:17:56.194Z,151039.89
2019-03-17T23:20:24.658Z,151026.84
2019-03-17T23:22:53.155Z,151029.44
2019-03-17T23:25:21.818Z,151000.67
2019-03-17T23:27:50.325Z,151015.08
2019-03-17T23:30:20.342Z,151016.37
2019-03-17T23:32:49.628Z,150998.06
2019-03-17T23:35:18.465Z,150986.31
2019-03-17T23:37:46.956Z,150974.56
2019-03-17T23:40:16.645Z,150982.41
2019-03-17T23:42:45.242Z,150983.72
2019-03-17T23:45:15.435Z,150990.22
2019-03-17T23:47:43.922Z,150986.31
2019-03-17T23:50:14.673Z,150987.62
2019-03-17T23:52:43.531Z,150969.31
2019-03-17T23:55:13.405Z,150971.97
2019-03-17T23:57:42.065Z,150971.97
